sensor_id;sensor_type;location;lat;lon;timestamp;P1;durP1;ratioP1;P2;durP2;ratioP2
36817;SDS011;22761;51.542;16.450;2022-11-15T00:02:07;40.10;;;25.20;;
36817;SDS011;22761;51.542;16.450;2022-11-15T00:04:52;40.10;;;25.80;;
36817;SDS011;22761;51.542;16.450;2022-11-15T00:07:38;36.90;;;22.93;;
36817;SDS011;22761;51.542;16.450;2022-11-15T00:10:24;42.37;;;25.10;;
36817;SDS011;22761;51.542;16.450;2022-11-15T00:13:11;38.47;;;23.50;;
36817;SDS011;22761;51.542;16.450;2022-11-15T00:15:58;39.50;;;24.20;;
36817;SDS011;22761;51.542;16.450;2022-11-15T00:18:45;40.43;;;23.77;;
36817;SDS011;22761;51.542;16.450;2022-11-15T00:21:30;38.80;;;24.00;;
36817;SDS011;22761;51.542;16.450;2022-11-15T00:24:16;40.50;;;24.23;;
36817;SDS011;22761;51.542;16.450;2022-11-15T00:27:02;40.83;;;23.37;;
36817;SDS011;22761;51.542;16.450;2022-11-15T00:29:47;43.87;;;24.03;;
36817;SDS011;22761;51.542;16.450;2022-11-15T00:32:33;39.13;;;23.90;;
36817;SDS011;22761;51.542;16.450;2022-11-15T00:35:18;40.23;;;24.23;;
36817;SDS011;22761;51.542;16.450;2022-11-15T00:38:03;35.40;;;23.13;;
36817;SDS011;22761;51.542;16.450;2022-11-15T00:40:49;35.77;;;23.13;;
36817;SDS011;22761;51.542;16.450;2022-11-15T00:43:35;36.73;;;22.43;;
36817;SDS011;22761;51.542;16.450;2022-11-15T00:46:20;36.77;;;23.03;;
36817;SDS011;22761;51.542;16.450;2022-11-15T00:49:05;34.70;;;21.47;;
36817;SDS011;22761;51.542;16.450;2022-11-15T00:51:51;35.17;;;20.87;;
36817;SDS011;22761;51.542;16.450;2022-11-15T00:54:37;31.93;;;20.10;;
36817;SDS011;22761;51.542;16.450;2022-11-15T00:57:22;33.17;;;20.13;;
36817;SDS011;22761;51.542;16.450;2022-11-15T01:00:08;33.17;;;20.50;;
36817;SDS011;22761;51.542;16.450;2022-11-15T01:02:55;33.90;;;20.83;;
36817;SDS011;22761;51.542;16.450;2022-11-15T01:05:41;38.43;;;23.37;;
36817;SDS011;22761;51.542;16.450;2022-11-15T01:08:26;47.43;;;25.27;;
36817;SDS011;22761;51.542;16.450;2022-11-15T01:11:11;45.83;;;24.77;;
36817;SDS011;22761;51.542;16.450;2022-11-15T01:13:57;46.73;;;28.17;;
36817;SDS011;22761;51.542;16.450;2022-11-15T01:16:42;43.43;;;26.17;;
36817;SDS011;22761;51.542;16.450;2022-11-15T01:19:28;40.40;;;23.40;;
36817;SDS011;22761;51.542;16.450;2022-11-15T01:22:13;47.00;;;28.33;;
36817;SDS011;22761;51.542;16.450;2022-11-15T01:24:59;55.03;;;31.73;;
36817;SDS011;22761;51.542;16.450;2022-11-15T01:27:44;44.83;;;26.60;;
36817;SDS011;22761;51.542;16.450;2022-11-15T01:30:29;48.03;;;26.90;;
36817;SDS011;22761;51.542;16.450;2022-11-15T01:33:14;47.77;;;27.63;;
36817;SDS011;22761;51.542;16.450;2022-11-15T01:36:03;49.70;;;26.53;;
36817;SDS011;22761;51.542;16.450;2022-11-15T01:38:55;50.00;;;28.40;;
36817;SDS011;22761;51.542;16.450;2022-11-15T01:41:42;46.98;;;27.27;;
36817;SDS011;22761;51.542;16.450;2022-11-15T01:47:29;46.73;;;26.67;;
36817;SDS011;22761;51.542;16.450;2022-11-15T01:50:19;44.95;;;26.50;;
36817;SDS011;22761;51.542;16.450;2022-11-15T01:53:08;47.00;;;26.20;;
36817;SDS011;22761;51.542;16.450;2022-11-15T01:55:55;55.17;;;30.37;;
36817;SDS011;22761;51.542;16.450;2022-11-15T01:58:41;49.67;;;30.63;;
36817;SDS011;22761;51.542;16.450;2022-11-15T02:01:27;47.80;;;28.50;;
36817;SDS011;22761;51.542;16.450;2022-11-15T02:04:16;53.87;;;31.17;;
36817;SDS011;22761;51.542;16.450;2022-11-15T02:07:05;55.92;;;31.77;;
36817;SDS011;22761;51.542;16.450;2022-11-15T02:09:53;50.97;;;30.10;;
36817;SDS011;22761;51.542;16.450;2022-11-15T02:12:39;50.33;;;30.27;;
36817;SDS011;22761;51.542;16.450;2022-11-15T02:15:26;57.23;;;33.27;;
36817;SDS011;22761;51.542;16.450;2022-11-15T02:18:24;50.53;;;29.80;;
36817;SDS011;22761;51.542;16.450;2022-11-15T02:36:49;47.47;;;28.87;;
36817;SDS011;22761;51.542;16.450;2022-11-15T02:39:51;50.83;;;29.27;;
36817;SDS011;22761;51.542;16.450;2022-11-15T02:42:54;53.63;;;29.70;;
36817;SDS011;22761;51.542;16.450;2022-11-15T02:46:07;55.33;;;32.10;;
36817;SDS011;22761;51.542;16.450;2022-11-15T02:48:52;50.25;;;31.93;;
36817;SDS011;22761;51.542;16.450;2022-11-15T02:51:38;53.47;;;32.30;;
36817;SDS011;22761;51.542;16.450;2022-11-15T02:54:26;52.80;;;31.90;;
36817;SDS011;22761;51.542;16.450;2022-11-15T02:57:17;51.17;;;31.63;;
36817;SDS011;22761;51.542;16.450;2022-11-15T03:00:09;56.00;;;32.10;;
36817;SDS011;22761;51.542;16.450;2022-11-15T03:06:16;50.80;;;30.63;;
36817;SDS011;22761;51.542;16.450;2022-11-15T03:12:46;53.73;;;30.83;;
36817;SDS011;22761;51.542;16.450;2022-11-15T03:15:39;54.63;;;32.03;;
36817;SDS011;22761;51.542;16.450;2022-11-15T03:18:38;54.10;;;31.83;;
36817;SDS011;22761;51.542;16.450;2022-11-15T03:21:28;52.60;;;31.60;;
36817;SDS011;22761;51.542;16.450;2022-11-15T03:24:15;53.17;;;31.37;;
36817;SDS011;22761;51.542;16.450;2022-11-15T03:27:05;57.33;;;32.73;;
36817;SDS011;22761;51.542;16.450;2022-11-15T03:29:55;54.50;;;31.30;;
36817;SDS011;22761;51.542;16.450;2022-11-15T03:32:46;52.98;;;32.00;;
36817;SDS011;22761;51.542;16.450;2022-11-15T03:35:38;50.80;;;30.70;;
36817;SDS011;22761;51.542;16.450;2022-11-15T03:38:27;52.10;;;32.57;;
36817;SDS011;22761;51.542;16.450;2022-11-15T03:41:19;55.07;;;30.87;;
36817;SDS011;22761;51.542;16.450;2022-11-15T03:44:12;53.23;;;31.33;;
36817;SDS011;22761;51.542;16.450;2022-11-15T03:50:13;49.17;;;30.00;;
36817;SDS011;22761;51.542;16.450;2022-11-15T03:53:05;50.93;;;30.17;;
36817;SDS011;22761;51.542;16.450;2022-11-15T03:55:50;50.93;;;31.40;;
36817;SDS011;22761;51.542;16.450;2022-11-15T03:58:36;57.53;;;32.37;;
36817;SDS011;22761;51.542;16.450;2022-11-15T04:01:21;56.37;;;34.37;;
36817;SDS011;22761;51.542;16.450;2022-11-15T04:04:06;55.10;;;32.33;;
36817;SDS011;22761;51.542;16.450;2022-11-15T04:06:52;53.23;;;32.33;;
36817;SDS011;22761;51.542;16.450;2022-11-15T04:09:37;51.40;;;32.03;;
36817;SDS011;22761;51.542;16.450;2022-11-15T04:12:24;54.73;;;31.77;;
36817;SDS011;22761;51.542;16.450;2022-11-15T04:15:20;51.97;;;31.53;;
36817;SDS011;22761;51.542;16.450;2022-11-15T04:18:07;54.27;;;31.67;;
36817;SDS011;22761;51.542;16.450;2022-11-15T04:20:53;55.83;;;32.50;;
36817;SDS011;22761;51.542;16.450;2022-11-15T04:23:57;51.93;;;32.13;;
36817;SDS011;22761;51.542;16.450;2022-11-15T04:26:51;56.13;;;33.83;;
36817;SDS011;22761;51.542;16.450;2022-11-15T04:29:37;55.63;;;34.53;;
36817;SDS011;22761;51.542;16.450;2022-11-15T04:32:22;55.83;;;33.63;;
36817;SDS011;22761;51.542;16.450;2022-11-15T04:35:08;56.67;;;32.30;;
36817;SDS011;22761;51.542;16.450;2022-11-15T04:37:53;55.40;;;32.33;;
36817;SDS011;22761;51.542;16.450;2022-11-15T04:40:40;54.43;;;32.33;;
36817;SDS011;22761;51.542;16.450;2022-11-15T04:43:26;52.47;;;32.53;;
36817;SDS011;22761;51.542;16.450;2022-11-15T04:46:11;55.37;;;32.87;;
36817;SDS011;22761;51.542;16.450;2022-11-15T04:48:57;55.27;;;32.47;;
36817;SDS011;22761;51.542;16.450;2022-11-15T04:51:43;56.33;;;32.70;;
36817;SDS011;22761;51.542;16.450;2022-11-15T04:54:28;54.57;;;32.17;;
36817;SDS011;22761;51.542;16.450;2022-11-15T04:57:14;56.47;;;32.77;;
36817;SDS011;22761;51.542;16.450;2022-11-15T04:59:59;51.50;;;29.80;;
36817;SDS011;22761;51.542;16.450;2022-11-15T05:02:45;57.23;;;31.43;;
36817;SDS011;22761;51.542;16.450;2022-11-15T05:05:49;54.60;;;32.80;;
36817;SDS011;22761;51.542;16.450;2022-11-15T05:08:34;51.33;;;31.07;;
36817;SDS011;22761;51.542;16.450;2022-11-15T05:11:20;48.77;;;29.47;;
36817;SDS011;22761;51.542;16.450;2022-11-15T05:14:05;52.03;;;29.70;;
36817;SDS011;22761;51.542;16.450;2022-11-15T05:16:50;49.87;;;30.63;;
36817;SDS011;22761;51.542;16.450;2022-11-15T05:19:36;50.90;;;30.20;;
36817;SDS011;22761;51.542;16.450;2022-11-15T05:22:22;56.33;;;30.60;;
36817;SDS011;22761;51.542;16.450;2022-11-15T05:25:08;55.97;;;31.10;;
36817;SDS011;22761;51.542;16.450;2022-11-15T05:27:54;54.10;;;31.30;;
36817;SDS011;22761;51.542;16.450;2022-11-15T05:30:39;50.47;;;30.43;;
36817;SDS011;22761;51.542;16.450;2022-11-15T05:33:25;51.03;;;30.27;;
36817;SDS011;22761;51.542;16.450;2022-11-15T05:36:15;50.73;;;30.60;;
36817;SDS011;22761;51.542;16.450;2022-11-15T05:39:23;56.60;;;30.60;;
36817;SDS011;22761;51.542;16.450;2022-11-15T05:42:11;57.20;;;32.80;;
36817;SDS011;22761;51.542;16.450;2022-11-15T05:44:59;56.03;;;32.23;;
36817;SDS011;22761;51.542;16.450;2022-11-15T05:47:47;50.57;;;30.97;;
36817;SDS011;22761;51.542;16.450;2022-11-15T05:50:35;56.03;;;31.70;;
36817;SDS011;22761;51.542;16.450;2022-11-15T05:53:22;54.30;;;32.20;;
36817;SDS011;22761;51.542;16.450;2022-11-15T05:56:09;55.17;;;31.23;;
36817;SDS011;22761;51.542;16.450;2022-11-15T05:58:56;54.83;;;32.13;;
36817;SDS011;22761;51.542;16.450;2022-11-15T06:01:42;51.17;;;32.27;;
36817;SDS011;22761;51.542;16.450;2022-11-15T06:04:27;54.00;;;32.03;;
36817;SDS011;22761;51.542;16.450;2022-11-15T06:07:13;51.87;;;30.03;;
36817;SDS011;22761;51.542;16.450;2022-11-15T06:09:58;51.43;;;32.23;;
36817;SDS011;22761;51.542;16.450;2022-11-15T06:12:44;58.90;;;32.03;;
36817;SDS011;22761;51.542;16.450;2022-11-15T06:15:29;55.73;;;33.20;;
36817;SDS011;22761;51.542;16.450;2022-11-15T06:18:16;53.17;;;31.50;;
36817;SDS011;22761;51.542;16.450;2022-11-15T06:21:01;53.73;;;31.50;;
36817;SDS011;22761;51.542;16.450;2022-11-15T06:23:46;50.97;;;32.57;;
36817;SDS011;22761;51.542;16.450;2022-11-15T06:26:31;51.97;;;31.23;;
36817;SDS011;22761;51.542;16.450;2022-11-15T06:29:17;50.87;;;31.23;;
36817;SDS011;22761;51.542;16.450;2022-11-15T06:32:02;56.87;;;32.77;;
36817;SDS011;22761;51.542;16.450;2022-11-15T06:34:48;48.87;;;31.17;;
36817;SDS011;22761;51.542;16.450;2022-11-15T06:37:34;57.73;;;32.17;;
36817;SDS011;22761;51.542;16.450;2022-11-15T06:40:19;50.87;;;30.87;;
36817;SDS011;22761;51.542;16.450;2022-11-15T06:43:05;53.13;;;31.60;;
36817;SDS011;22761;51.542;16.450;2022-11-15T06:45:51;52.30;;;31.07;;
36817;SDS011;22761;51.542;16.450;2022-11-15T06:48:36;50.83;;;30.93;;
36817;SDS011;22761;51.542;16.450;2022-11-15T06:51:22;57.90;;;33.13;;
36817;SDS011;22761;51.542;16.450;2022-11-15T06:54:07;53.43;;;31.33;;
36817;SDS011;22761;51.542;16.450;2022-11-15T06:56:53;52.07;;;31.43;;
36817;SDS011;22761;51.542;16.450;2022-11-15T06:59:38;50.17;;;30.57;;
36817;SDS011;22761;51.542;16.450;2022-11-15T07:02:23;57.90;;;30.93;;
36817;SDS011;22761;51.542;16.450;2022-11-15T07:05:09;49.33;;;31.17;;
36817;SDS011;22761;51.542;16.450;2022-11-15T07:07:55;52.83;;;30.70;;
36817;SDS011;22761;51.542;16.450;2022-11-15T07:10:42;50.87;;;30.50;;
36817;SDS011;22761;51.542;16.450;2022-11-15T07:13:27;46.50;;;30.60;;
36817;SDS011;22761;51.542;16.450;2022-11-15T07:16:16;57.23;;;33.33;;
36817;SDS011;22761;51.542;16.450;2022-11-15T07:19:01;52.80;;;31.67;;
36817;SDS011;22761;51.542;16.450;2022-11-15T07:21:47;50.37;;;30.10;;
36817;SDS011;22761;51.542;16.450;2022-11-15T07:24:32;53.60;;;30.47;;
36817;SDS011;22761;51.542;16.450;2022-11-15T07:27:17;50.80;;;30.53;;
36817;SDS011;22761;51.542;16.450;2022-11-15T07:30:03;53.23;;;31.17;;
36817;SDS011;22761;51.542;16.450;2022-11-15T07:32:56;50.87;;;31.07;;
36817;SDS011;22761;51.542;16.450;2022-11-15T07:35:44;52.77;;;32.90;;
36817;SDS011;22761;51.542;16.450;2022-11-15T07:38:31;59.07;;;37.60;;
36817;SDS011;22761;51.542;16.450;2022-11-15T07:41:18;54.40;;;34.90;;
36817;SDS011;22761;51.542;16.450;2022-11-15T07:44:04;93.53;;;57.83;;
36817;SDS011;22761;51.542;16.450;2022-11-15T07:46:50;94.07;;;56.97;;
36817;SDS011;22761;51.542;16.450;2022-11-15T07:49:35;99.03;;;58.33;;
36817;SDS011;22761;51.542;16.450;2022-11-15T07:52:20;61.27;;;35.87;;
36817;SDS011;22761;51.542;16.450;2022-11-15T07:55:07;96.77;;;57.57;;
36817;SDS011;22761;51.542;16.450;2022-11-15T07:57:53;88.93;;;60.80;;
36817;SDS011;22761;51.542;16.450;2022-11-15T08:00:40;89.77;;;61.63;;
36817;SDS011;22761;51.542;16.450;2022-11-15T08:03:25;91.37;;;60.13;;
36817;SDS011;22761;51.542;16.450;2022-11-15T08:06:11;69.40;;;46.13;;
36817;SDS011;22761;51.542;16.450;2022-11-15T08:08:56;52.93;;;34.53;;
36817;SDS011;22761;51.542;16.450;2022-11-15T08:11:42;45.57;;;30.30;;
36817;SDS011;22761;51.542;16.450;2022-11-15T08:14:27;47.57;;;31.77;;
36817;SDS011;22761;51.542;16.450;2022-11-15T08:17:13;51.97;;;31.43;;
36817;SDS011;22761;51.542;16.450;2022-11-15T08:19:58;52.27;;;33.73;;
36817;SDS011;22761;51.542;16.450;2022-11-15T08:22:43;47.63;;;31.20;;
36817;SDS011;22761;51.542;16.450;2022-11-15T08:25:30;50.90;;;33.50;;
36817;SDS011;22761;51.542;16.450;2022-11-15T08:28:16;53.67;;;32.67;;
36817;SDS011;22761;51.542;16.450;2022-11-15T08:31:02;50.97;;;30.73;;
36817;SDS011;22761;51.542;16.450;2022-11-15T08:33:49;52.43;;;32.70;;
36817;SDS011;22761;51.542;16.450;2022-11-15T08:36:35;53.17;;;32.23;;
36817;SDS011;22761;51.542;16.450;2022-11-15T08:39:20;48.50;;;30.50;;
36817;SDS011;22761;51.542;16.450;2022-11-15T08:42:06;47.93;;;31.70;;
36817;SDS011;22761;51.542;16.450;2022-11-15T08:44:51;45.90;;;30.33;;
36817;SDS011;22761;51.542;16.450;2022-11-15T08:47:36;47.63;;;31.57;;
36817;SDS011;22761;51.542;16.450;2022-11-15T08:50:22;43.27;;;29.43;;
36817;SDS011;22761;51.542;16.450;2022-11-15T08:53:07;48.50;;;30.07;;
36817;SDS011;22761;51.542;16.450;2022-11-15T08:55:53;46.17;;;30.47;;
36817;SDS011;22761;51.542;16.450;2022-11-15T08:58:38;46.03;;;30.00;;
36817;SDS011;22761;51.542;16.450;2022-11-15T09:01:24;44.37;;;29.50;;
36817;SDS011;22761;51.542;16.450;2022-11-15T09:04:09;45.03;;;30.63;;
36817;SDS011;22761;51.542;16.450;2022-11-15T09:06:55;44.00;;;28.80;;
36817;SDS011;22761;51.542;16.450;2022-11-15T09:09:40;46.27;;;30.33;;
36817;SDS011;22761;51.542;16.450;2022-11-15T09:12:26;44.90;;;29.40;;
36817;SDS011;22761;51.542;16.450;2022-11-15T09:15:11;44.73;;;29.57;;
36817;SDS011;22761;51.542;16.450;2022-11-15T09:17:59;46.13;;;30.40;;
36817;SDS011;22761;51.542;16.450;2022-11-15T09:20:45;45.40;;;30.77;;
36817;SDS011;22761;51.542;16.450;2022-11-15T09:23:30;45.07;;;31.83;;
36817;SDS011;22761;51.542;16.450;2022-11-15T09:26:16;47.40;;;31.00;;
36817;SDS011;22761;51.542;16.450;2022-11-15T09:29:01;46.17;;;32.00;;
36817;SDS011;22761;51.542;16.450;2022-11-15T09:31:47;44.33;;;31.17;;
36817;SDS011;22761;51.542;16.450;2022-11-15T09:34:33;46.03;;;31.40;;
36817;SDS011;22761;51.542;16.450;2022-11-15T09:37:18;45.93;;;31.13;;
36817;SDS011;22761;51.542;16.450;2022-11-15T09:40:04;41.07;;;30.37;;
36817;SDS011;22761;51.542;16.450;2022-11-15T09:46:20;42.80;;;30.25;;
36817;SDS011;22761;51.542;16.450;2022-11-15T09:49:19;43.55;;;30.68;;
36817;SDS011;22761;51.542;16.450;2022-11-15T09:51:49;45.80;;;32.40;;
36817;SDS011;22761;51.542;16.450;2022-11-15T10:00:08;43.98;;;31.90;;
36817;SDS011;22761;51.542;16.450;2022-11-15T10:05:39;42.05;;;30.72;;
36817;SDS011;22761;51.542;16.450;2022-11-15T10:11:08;43.75;;;31.55;;
36817;SDS011;22761;51.542;16.450;2022-11-15T10:13:40;39.42;;;30.43;;
36817;SDS011;22761;51.542;16.450;2022-11-15T10:16:28;38.60;;;29.45;;
36817;SDS011;22761;51.542;16.450;2022-11-15T10:25:17;43.00;;;31.93;;
36817;SDS011;22761;51.542;16.450;2022-11-15T10:30:56;40.28;;;30.25;;
36817;SDS011;22761;51.542;16.450;2022-11-15T10:46:40;36.55;;;29.45;;
36817;SDS011;22761;51.542;16.450;2022-11-15T10:49:12;40.75;;;30.05;;
36817;SDS011;22761;51.542;16.450;2022-11-15T10:54:36;37.08;;;28.45;;
36817;SDS011;22761;51.542;16.450;2022-11-15T10:57:12;39.65;;;28.23;;
36817;SDS011;22761;51.542;16.450;2022-11-15T10:59:50;36.23;;;27.97;;
36817;SDS011;22761;51.542;16.450;2022-11-15T11:02:31;35.63;;;28.90;;
36817;SDS011;22761;51.542;16.450;2022-11-15T11:05:06;35.10;;;29.15;;
36817;SDS011;22761;51.542;16.450;2022-11-15T11:07:59;33.73;;;28.15;;
36817;SDS011;22761;51.542;16.450;2022-11-15T11:10:30;34.35;;;27.98;;
36817;SDS011;22761;51.542;16.450;2022-11-15T11:15:58;35.65;;;28.25;;
36817;SDS011;22761;51.542;16.450;2022-11-15T11:18:30;33.55;;;26.97;;
36817;SDS011;22761;51.542;16.450;2022-11-15T11:21:02;33.15;;;27.93;;
36817;SDS011;22761;51.542;16.450;2022-11-15T11:23:51;40.35;;;25.80;;
36817;SDS011;22761;51.542;16.450;2022-11-15T11:29:36;30.52;;;25.55;;
36817;SDS011;22761;51.542;16.450;2022-11-15T11:32:44;31.12;;;24.92;;
36817;SDS011;22761;51.542;16.450;2022-11-15T11:39:31;32.25;;;25.25;;
36817;SDS011;22761;51.542;16.450;2022-11-15T11:41:40;28.62;;;23.05;;
36817;SDS011;22761;51.542;16.450;2022-11-15T11:47:24;28.90;;;23.32;;
36817;SDS011;22761;51.542;16.450;2022-11-15T11:50:00;29.37;;;23.75;;
36817;SDS011;22761;51.542;16.450;2022-11-15T11:55:38;32.28;;;24.27;;
36817;SDS011;22761;51.542;16.450;2022-11-15T11:58:26;34.60;;;25.08;;
36817;SDS011;22761;51.542;16.450;2022-11-15T12:15:24;26.50;;;21.93;;
36817;SDS011;22761;51.542;16.450;2022-11-15T12:18:04;24.40;;;19.15;;
36817;SDS011;22761;51.542;16.450;2022-11-15T12:20:36;19.60;;;16.80;;
36817;SDS011;22761;51.542;16.450;2022-11-15T12:23:16;21.55;;;17.25;;
36817;SDS011;22761;51.542;16.450;2022-11-15T12:31:10;18.42;;;15.45;;
36817;SDS011;22761;51.542;16.450;2022-11-15T12:33:43;17.98;;;14.83;;
36817;SDS011;22761;51.542;16.450;2022-11-15T12:39:04;21.68;;;15.28;;
36817;SDS011;22761;51.542;16.450;2022-11-15T12:41:39;16.42;;;13.90;;
36817;SDS011;22761;51.542;16.450;2022-11-15T12:44:16;16.52;;;14.33;;
36817;SDS011;22761;51.542;16.450;2022-11-15T12:47:02;17.73;;;14.43;;
36817;SDS011;22761;51.542;16.450;2022-11-15T12:52:07;18.75;;;14.45;;
36817;SDS011;22761;51.542;16.450;2022-11-15T12:59:57;19.87;;;14.87;;
36817;SDS011;22761;51.542;16.450;2022-11-15T13:02:41;20.48;;;15.35;;
36817;SDS011;22761;51.542;16.450;2022-11-15T13:12:59;17.17;;;14.25;;
36817;SDS011;22761;51.542;16.450;2022-11-15T13:15:36;17.62;;;13.98;;
36817;SDS011;22761;51.542;16.450;2022-11-15T13:18:58;16.52;;;14.25;;
36817;SDS011;22761;51.542;16.450;2022-11-15T13:21:26;19.65;;;14.98;;
36817;SDS011;22761;51.542;16.450;2022-11-15T13:24:15;18.30;;;14.80;;
36817;SDS011;22761;51.542;16.450;2022-11-15T13:26:44;15.40;;;13.72;;
36817;SDS011;22761;51.542;16.450;2022-11-15T13:29:16;16.57;;;14.87;;
36817;SDS011;22761;51.542;16.450;2022-11-15T13:31:45;17.92;;;14.90;;
36817;SDS011;22761;51.542;16.450;2022-11-15T13:34:20;18.62;;;14.28;;
36817;SDS011;22761;51.542;16.450;2022-11-15T13:36:52;18.90;;;15.13;;
36817;SDS011;22761;51.542;16.450;2022-11-15T13:39:29;20.40;;;15.75;;
36817;SDS011;22761;51.542;16.450;2022-11-15T13:42:00;18.75;;;15.08;;
36817;SDS011;22761;51.542;16.450;2022-11-15T13:44:31;20.75;;;15.78;;
36817;SDS011;22761;51.542;16.450;2022-11-15T13:47:03;18.02;;;15.45;;
36817;SDS011;22761;51.542;16.450;2022-11-15T13:49:34;17.75;;;15.00;;
36817;SDS011;22761;51.542;16.450;2022-11-15T13:52:04;17.48;;;14.10;;
36817;SDS011;22761;51.542;16.450;2022-11-15T13:54:39;17.30;;;13.40;;
36817;SDS011;22761;51.542;16.450;2022-11-15T13:57:15;15.32;;;13.28;;
36817;SDS011;22761;51.542;16.450;2022-11-15T13:59:49;17.40;;;13.58;;
36817;SDS011;22761;51.542;16.450;2022-11-15T14:02:27;17.87;;;13.15;;
36817;SDS011;22761;51.542;16.450;2022-11-15T14:05:03;15.78;;;13.38;;
36817;SDS011;22761;51.542;16.450;2022-11-15T14:08:02;16.87;;;12.18;;
36817;SDS011;22761;51.542;16.450;2022-11-15T14:10:34;16.62;;;12.05;;
36817;SDS011;22761;51.542;16.450;2022-11-15T14:13:09;17.27;;;12.98;;
36817;SDS011;22761;51.542;16.450;2022-11-15T14:15:40;14.50;;;11.88;;
36817;SDS011;22761;51.542;16.450;2022-11-15T14:18:38;14.55;;;12.03;;
36817;SDS011;22761;51.542;16.450;2022-11-15T14:20:39;14.50;;;11.53;;
36817;SDS011;22761;51.542;16.450;2022-11-15T14:23:23;15.50;;;12.00;;
36817;SDS011;22761;51.542;16.450;2022-11-15T14:25:56;19.20;;;11.75;;
36817;SDS011;22761;51.542;16.450;2022-11-15T14:30:59;15.50;;;11.60;;
36817;SDS011;22761;51.542;16.450;2022-11-15T14:33:30;16.02;;;11.90;;
36817;SDS011;22761;51.542;16.450;2022-11-15T14:36:11;15.72;;;12.78;;
36817;SDS011;22761;51.542;16.450;2022-11-15T14:38:41;14.78;;;11.70;;
36817;SDS011;22761;51.542;16.450;2022-11-15T14:41:17;18.23;;;13.38;;
36817;SDS011;22761;51.542;16.450;2022-11-15T14:43:50;18.73;;;13.58;;
36817;SDS011;22761;51.542;16.450;2022-11-15T14:46:19;18.73;;;14.17;;
36817;SDS011;22761;51.542;16.450;2022-11-15T14:48:46;19.25;;;13.38;;
36817;SDS011;22761;51.542;16.450;2022-11-15T14:51:15;21.23;;;14.85;;
36817;SDS011;22761;51.542;16.450;2022-11-15T14:53:44;21.20;;;13.98;;
36817;SDS011;22761;51.542;16.450;2022-11-15T14:56:12;20.88;;;13.53;;
36817;SDS011;22761;51.542;16.450;2022-11-15T14:58:41;19.07;;;12.28;;
36817;SDS011;22761;51.542;16.450;2022-11-15T15:01:16;19.32;;;12.05;;
36817;SDS011;22761;51.542;16.450;2022-11-15T15:03:50;19.23;;;13.15;;
36817;SDS011;22761;51.542;16.450;2022-11-15T15:06:18;17.82;;;12.33;;
36817;SDS011;22761;51.542;16.450;2022-11-15T15:08:45;17.05;;;12.47;;
36817;SDS011;22761;51.542;16.450;2022-11-15T15:11:18;20.08;;;12.75;;
36817;SDS011;22761;51.542;16.450;2022-11-15T15:13:50;17.93;;;11.97;;
36817;SDS011;22761;51.542;16.450;2022-11-15T15:16:18;15.73;;;11.50;;
36817;SDS011;22761;51.542;16.450;2022-11-15T15:18:46;20.00;;;13.70;;
36817;SDS011;22761;51.542;16.450;2022-11-15T15:21:31;25.53;;;14.10;;
36817;SDS011;22761;51.542;16.450;2022-11-15T15:23:56;28.07;;;16.17;;
36817;SDS011;22761;51.542;16.450;2022-11-15T15:26:23;30.07;;;17.93;;
36817;SDS011;22761;51.542;16.450;2022-11-15T15:28:51;33.47;;;18.90;;
36817;SDS011;22761;51.542;16.450;2022-11-15T15:31:18;31.77;;;20.30;;
36817;SDS011;22761;51.542;16.450;2022-11-15T15:33:45;28.43;;;17.63;;
36817;SDS011;22761;51.542;16.450;2022-11-15T15:36:12;23.77;;;15.40;;
36817;SDS011;22761;51.542;16.450;2022-11-15T15:38:42;25.85;;;18.40;;
36817;SDS011;22761;51.542;16.450;2022-11-15T15:41:12;25.20;;;16.30;;
36817;SDS011;22761;51.542;16.450;2022-11-15T15:43:41;21.53;;;14.33;;
36817;SDS011;22761;51.542;16.450;2022-11-15T15:46:15;23.47;;;14.57;;
36817;SDS011;22761;51.542;16.450;2022-11-15T15:48:43;22.90;;;14.30;;
36817;SDS011;22761;51.542;16.450;2022-11-15T15:51:10;20.93;;;13.40;;
36817;SDS011;22761;51.542;16.450;2022-11-15T15:53:38;21.73;;;14.37;;
36817;SDS011;22761;51.542;16.450;2022-11-15T15:56:05;21.87;;;14.70;;
36817;SDS011;22761;51.542;16.450;2022-11-15T15:58:34;21.87;;;14.10;;
36817;SDS011;22761;51.542;16.450;2022-11-15T16:01:01;26.53;;;16.43;;
36817;SDS011;22761;51.542;16.450;2022-11-15T16:03:28;50.90;;;29.93;;
36817;SDS011;22761;51.542;16.450;2022-11-15T16:05:56;63.77;;;32.70;;
36817;SDS011;22761;51.542;16.450;2022-11-15T16:08:24;74.10;;;35.50;;
36817;SDS011;22761;51.542;16.450;2022-11-15T16:10:55;70.53;;;33.63;;
36817;SDS011;22761;51.542;16.450;2022-11-15T16:13:23;62.83;;;33.03;;
36817;SDS011;22761;51.542;16.450;2022-11-15T16:15:52;59.43;;;29.97;;
36817;SDS011;22761;51.542;16.450;2022-11-15T16:18:22;62.03;;;26.57;;
36817;SDS011;22761;51.542;16.450;2022-11-15T16:20:49;61.17;;;27.53;;
36817;SDS011;22761;51.542;16.450;2022-11-15T16:23:18;72.70;;;30.90;;
36817;SDS011;22761;51.542;16.450;2022-11-15T16:25:48;68.77;;;32.10;;
36817;SDS011;22761;51.542;16.450;2022-11-15T16:30:48;67.87;;;29.18;;
36817;SDS011;22761;51.542;16.450;2022-11-15T16:33:16;64.57;;;29.37;;
36817;SDS011;22761;51.542;16.450;2022-11-15T16:35:45;57.80;;;29.43;;
36817;SDS011;22761;51.542;16.450;2022-11-15T16:38:14;46.97;;;26.90;;
36817;SDS011;22761;51.542;16.450;2022-11-15T16:40:42;50.03;;;27.87;;
36817;SDS011;22761;51.542;16.450;2022-11-15T16:43:09;55.23;;;29.37;;
36817;SDS011;22761;51.542;16.450;2022-11-15T16:45:37;46.07;;;27.07;;
36817;SDS011;22761;51.542;16.450;2022-11-15T16:48:04;51.67;;;27.80;;
36817;SDS011;22761;51.542;16.450;2022-11-15T16:50:32;46.50;;;26.37;;
36817;SDS011;22761;51.542;16.450;2022-11-15T16:53:06;46.93;;;26.47;;
36817;SDS011;22761;51.542;16.450;2022-11-15T16:55:33;49.97;;;27.50;;
36817;SDS011;22761;51.542;16.450;2022-11-15T16:58:00;48.27;;;26.70;;
36817;SDS011;22761;51.542;16.450;2022-11-15T17:00:28;49.37;;;27.43;;
36817;SDS011;22761;51.542;16.450;2022-11-15T17:02:56;47.60;;;28.27;;
36817;SDS011;22761;51.542;16.450;2022-11-15T17:05:25;55.13;;;27.63;;
36817;SDS011;22761;51.542;16.450;2022-11-15T17:07:52;46.53;;;27.17;;
36817;SDS011;22761;51.542;16.450;2022-11-15T17:10:20;42.53;;;25.73;;
36817;SDS011;22761;51.542;16.450;2022-11-15T17:12:49;44.50;;;25.47;;
36817;SDS011;22761;51.542;16.450;2022-11-15T17:15:18;45.50;;;26.03;;
36817;SDS011;22761;51.542;16.450;2022-11-15T17:17:49;47.70;;;26.80;;
36817;SDS011;22761;51.542;16.450;2022-11-15T17:20:20;44.93;;;27.10;;
36817;SDS011;22761;51.542;16.450;2022-11-15T17:22:49;47.78;;;28.00;;
36817;SDS011;22761;51.542;16.450;2022-11-15T17:25:18;52.30;;;28.40;;
36817;SDS011;22761;51.542;16.450;2022-11-15T17:27:47;47.17;;;27.93;;
36817;SDS011;22761;51.542;16.450;2022-11-15T17:30:14;53.73;;;29.33;;
36817;SDS011;22761;51.542;16.450;2022-11-15T17:32:43;51.77;;;28.03;;
36817;SDS011;22761;51.542;16.450;2022-11-15T17:35:13;50.63;;;27.98;;
36817;SDS011;22761;51.542;16.450;2022-11-15T17:37:40;40.97;;;26.87;;